sensor_id;sensor_type;location;lat;lon;timestamp;P1;durP1;ratioP1;P2;durP2;ratioP2
11334;SDS011;5722;42.620;23.374;2024-02-21T00:03:21;7.67;;;5.13;;
11334;SDS011;5722;42.620;23.374;2024-02-21T00:09:20;7.00;;;5.73;;
11334;SDS011;5722;42.620;23.374;2024-02-21T00:11:47;6.57;;;5.70;;
11334;SDS011;5722;42.620;23.374;2024-02-21T00:14:17;6.60;;;5.90;;
11334;SDS011;5722;42.620;23.374;2024-02-21T00:16:45;5.47;;;4.97;;
11334;SDS011;5722;42.620;23.374;2024-02-21T00:19:28;6.03;;;5.03;;
11334;SDS011;5722;42.620;23.374;2024-02-21T00:24:36;5.70;;;4.60;;
11334;SDS011;5722;42.620;23.374;2024-02-21T00:27:04;5.40;;;4.83;;
11334;SDS011;5722;42.620;23.374;2024-02-21T00:29:36;6.07;;;5.20;;
11334;SDS011;5722;42.620;23.374;2024-02-21T00:32:08;5.97;;;4.87;;
11334;SDS011;5722;42.620;23.374;2024-02-21T00:34:37;5.40;;;4.70;;
11334;SDS011;5722;42.620;23.374;2024-02-21T00:37:06;6.27;;;5.23;;
11334;SDS011;5722;42.620;23.374;2024-02-21T00:39:36;5.50;;;4.77;;
11334;SDS011;5722;42.620;23.374;2024-02-21T00:42:08;6.63;;;5.23;;
11334;SDS011;5722;42.620;23.374;2024-02-21T00:44:42;5.90;;;5.20;;
11334;SDS011;5722;42.620;23.374;2024-02-21T00:47:09;6.57;;;5.17;;
11334;SDS011;5722;42.620;23.374;2024-02-21T00:49:36;5.47;;;4.80;;
11334;SDS011;5722;42.620;23.374;2024-02-21T00:52:05;6.37;;;5.20;;
11334;SDS011;5722;42.620;23.374;2024-02-21T00:54:32;6.10;;;5.10;;
11334;SDS011;5722;42.620;23.374;2024-02-21T00:57:04;6.60;;;5.60;;
11334;SDS011;5722;42.620;23.374;2024-02-21T00:59:33;6.50;;;5.77;;
11334;SDS011;5722;42.620;23.374;2024-02-21T01:02:05;6.00;;;5.40;;
11334;SDS011;5722;42.620;23.374;2024-02-21T01:04:34;7.10;;;5.97;;
11334;SDS011;5722;42.620;23.374;2024-02-21T01:07:06;7.13;;;5.60;;
11334;SDS011;5722;42.620;23.374;2024-02-21T01:09:33;5.97;;;5.37;;
11334;SDS011;5722;42.620;23.374;2024-02-21T01:12:14;6.43;;;5.20;;
11334;SDS011;5722;42.620;23.374;2024-02-21T01:14:46;6.83;;;5.53;;
11334;SDS011;5722;42.620;23.374;2024-02-21T01:20:06;6.40;;;5.53;;
11334;SDS011;5722;42.620;23.374;2024-02-21T01:22:37;6.53;;;5.50;;
11334;SDS011;5722;42.620;23.374;2024-02-21T01:25:11;6.53;;;5.60;;
11334;SDS011;5722;42.620;23.374;2024-02-21T01:27:47;6.73;;;6.03;;
11334;SDS011;5722;42.620;23.374;2024-02-21T01:30:15;6.50;;;5.80;;
11334;SDS011;5722;42.620;23.374;2024-02-21T01:35:57;7.80;;;5.90;;
11334;SDS011;5722;42.620;23.374;2024-02-21T01:38:36;7.07;;;6.00;;
11334;SDS011;5722;42.620;23.374;2024-02-21T01:41:10;6.47;;;5.73;;
11334;SDS011;5722;42.620;23.374;2024-02-21T01:52:03;7.17;;;6.23;;
11334;SDS011;5722;42.620;23.374;2024-02-21T01:57:06;8.97;;;7.13;;
11334;SDS011;5722;42.620;23.374;2024-02-21T01:59:37;8.20;;;6.80;;
11334;SDS011;5722;42.620;23.374;2024-02-21T02:02:07;9.00;;;7.20;;
11334;SDS011;5722;42.620;23.374;2024-02-21T02:04:38;9.77;;;7.60;;
11334;SDS011;5722;42.620;23.374;2024-02-21T02:09:55;8.10;;;6.90;;
11334;SDS011;5722;42.620;23.374;2024-02-21T02:21:14;9.83;;;8.47;;
11334;SDS011;5722;42.620;23.374;2024-02-21T02:26:51;12.33;;;9.67;;
11334;SDS011;5722;42.620;23.374;2024-02-21T02:35:43;11.17;;;9.13;;
11334;SDS011;5722;42.620;23.374;2024-02-21T02:43:53;11.17;;;9.30;;
11334;SDS011;5722;42.620;23.374;2024-02-21T02:46:27;11.40;;;9.80;;
11334;SDS011;5722;42.620;23.374;2024-02-21T02:49:00;11.13;;;9.27;;
11334;SDS011;5722;42.620;23.374;2024-02-21T02:51:30;12.63;;;10.23;;
11334;SDS011;5722;42.620;23.374;2024-02-21T02:53:58;12.00;;;10.00;;
11334;SDS011;5722;42.620;23.374;2024-02-21T02:59:48;11.30;;;9.90;;
11334;SDS011;5722;42.620;23.374;2024-02-21T03:02:17;12.73;;;10.37;;
11334;SDS011;5722;42.620;23.374;2024-02-21T03:07:56;14.33;;;11.30;;
11334;SDS011;5722;42.620;23.374;2024-02-21T03:10:23;12.20;;;10.33;;
11334;SDS011;5722;42.620;23.374;2024-02-21T03:12:50;12.37;;;10.13;;
11334;SDS011;5722;42.620;23.374;2024-02-21T03:15:20;13.17;;;10.03;;
11334;SDS011;5722;42.620;23.374;2024-02-21T03:17:53;12.37;;;10.47;;
11334;SDS011;5722;42.620;23.374;2024-02-21T03:20:20;11.73;;;10.27;;
11334;SDS011;5722;42.620;23.374;2024-02-21T03:23:02;12.87;;;10.60;;
11334;SDS011;5722;42.620;23.374;2024-02-21T03:25:29;12.83;;;10.70;;
11334;SDS011;5722;42.620;23.374;2024-02-21T03:28:06;12.90;;;9.77;;
11334;SDS011;5722;42.620;23.374;2024-02-21T03:30:48;11.70;;;9.87;;
11334;SDS011;5722;42.620;23.374;2024-02-21T03:33:15;13.67;;;9.43;;
11334;SDS011;5722;42.620;23.374;2024-02-21T03:35:42;12.30;;;9.53;;
11334;SDS011;5722;42.620;23.374;2024-02-21T03:38:12;11.40;;;9.80;;
11334;SDS011;5722;42.620;23.374;2024-02-21T03:40:39;11.77;;;10.13;;
11334;SDS011;5722;42.620;23.374;2024-02-21T03:43:09;11.00;;;9.67;;
11334;SDS011;5722;42.620;23.374;2024-02-21T03:45:39;12.53;;;10.07;;
11334;SDS011;5722;42.620;23.374;2024-02-21T03:48:07;11.23;;;9.80;;
11334;SDS011;5722;42.620;23.374;2024-02-21T03:50:34;12.57;;;10.10;;
11334;SDS011;5722;42.620;23.374;2024-02-21T03:53:01;11.97;;;9.70;;
11334;SDS011;5722;42.620;23.374;2024-02-21T03:55:28;11.67;;;10.27;;
11334;SDS011;5722;42.620;23.374;2024-02-21T03:57:59;13.73;;;10.10;;
11334;SDS011;5722;42.620;23.374;2024-02-21T04:00:31;11.60;;;10.40;;
11334;SDS011;5722;42.620;23.374;2024-02-21T04:03:02;12.90;;;10.53;;
11334;SDS011;5722;42.620;23.374;2024-02-21T04:05:31;13.33;;;10.23;;
11334;SDS011;5722;42.620;23.374;2024-02-21T04:08:01;11.97;;;10.10;;
11334;SDS011;5722;42.620;23.374;2024-02-21T04:10:34;11.70;;;10.23;;
11334;SDS011;5722;42.620;23.374;2024-02-21T04:13:10;11.20;;;10.03;;
11334;SDS011;5722;42.620;23.374;2024-02-21T04:15:39;12.07;;;9.63;;
11334;SDS011;5722;42.620;23.374;2024-02-21T04:18:21;12.23;;;10.00;;
11334;SDS011;5722;42.620;23.374;2024-02-21T04:23:40;12.60;;;10.03;;
11334;SDS011;5722;42.620;23.374;2024-02-21T04:34:38;14.57;;;11.60;;
11334;SDS011;5722;42.620;23.374;2024-02-21T04:37:12;16.30;;;11.47;;
11334;SDS011;5722;42.620;23.374;2024-02-21T04:39:58;18.73;;;11.63;;
11334;SDS011;5722;42.620;23.374;2024-02-21T04:45:29;15.07;;;11.30;;
11334;SDS011;5722;42.620;23.374;2024-02-21T04:48:13;16.03;;;11.57;;
11334;SDS011;5722;42.620;23.374;2024-02-21T04:54:05;14.37;;;12.40;;
11334;SDS011;5722;42.620;23.374;2024-02-21T04:56:38;15.63;;;12.63;;
11334;SDS011;5722;42.620;23.374;2024-02-21T05:02:10;16.90;;;13.00;;
11334;SDS011;5722;42.620;23.374;2024-02-21T05:07:18;18.43;;;14.70;;
11334;SDS011;5722;42.620;23.374;2024-02-21T05:09:48;21.90;;;17.47;;
11334;SDS011;5722;42.620;23.374;2024-02-21T05:12:37;21.40;;;16.07;;
11334;SDS011;5722;42.620;23.374;2024-02-21T05:15:14;57.40;;;30.63;;
11334;SDS011;5722;42.620;23.374;2024-02-21T05:17:46;62.67;;;32.80;;
11334;SDS011;5722;42.620;23.374;2024-02-21T05:20:21;49.80;;;30.40;;
11334;SDS011;5722;42.620;23.374;2024-02-21T05:22:50;35.17;;;24.23;;
11334;SDS011;5722;42.620;23.374;2024-02-21T05:28:34;23.20;;;17.00;;
11334;SDS011;5722;42.620;23.374;2024-02-21T05:36:54;26.07;;;18.10;;
11334;SDS011;5722;42.620;23.374;2024-02-21T05:39:27;25.87;;;17.83;;
11334;SDS011;5722;42.620;23.374;2024-02-21T05:42:06;26.97;;;18.97;;
11334;SDS011;5722;42.620;23.374;2024-02-21T05:47:38;36.60;;;26.13;;
11334;SDS011;5722;42.620;23.374;2024-02-21T05:52:52;40.17;;;27.23;;
11334;SDS011;5722;42.620;23.374;2024-02-21T05:58:03;60.00;;;36.00;;
11334;SDS011;5722;42.620;23.374;2024-02-21T06:00:33;59.07;;;35.13;;
11334;SDS011;5722;42.620;23.374;2024-02-21T06:03:09;54.70;;;33.23;;
11334;SDS011;5722;42.620;23.374;2024-02-21T06:05:40;47.00;;;30.43;;
11334;SDS011;5722;42.620;23.374;2024-02-21T06:08:09;41.33;;;24.23;;
11334;SDS011;5722;42.620;23.374;2024-02-21T06:10:36;29.30;;;19.37;;
11334;SDS011;5722;42.620;23.374;2024-02-21T06:13:03;25.73;;;19.03;;
11334;SDS011;5722;42.620;23.374;2024-02-21T06:15:30;25.83;;;19.00;;
11334;SDS011;5722;42.620;23.374;2024-02-21T06:17:57;33.37;;;21.47;;
11334;SDS011;5722;42.620;23.374;2024-02-21T06:20:28;33.03;;;23.27;;
11334;SDS011;5722;42.620;23.374;2024-02-21T06:22:55;25.90;;;17.83;;
11334;SDS011;5722;42.620;23.374;2024-02-21T06:25:21;25.93;;;19.07;;
11334;SDS011;5722;42.620;23.374;2024-02-21T06:27:48;22.63;;;16.63;;
11334;SDS011;5722;42.620;23.374;2024-02-21T06:30:15;20.93;;;16.23;;
11334;SDS011;5722;42.620;23.374;2024-02-21T06:32:41;19.27;;;14.90;;
11334;SDS011;5722;42.620;23.374;2024-02-21T06:35:08;23.30;;;14.20;;
11334;SDS011;5722;42.620;23.374;2024-02-21T06:37:36;19.47;;;13.90;;
11334;SDS011;5722;42.620;23.374;2024-02-21T06:40:04;20.37;;;14.10;;
11334;SDS011;5722;42.620;23.374;2024-02-21T06:42:31;18.33;;;13.63;;
11334;SDS011;5722;42.620;23.374;2024-02-21T06:44:57;19.63;;;14.20;;
11334;SDS011;5722;42.620;23.374;2024-02-21T06:47:24;21.17;;;13.83;;
11334;SDS011;5722;42.620;23.374;2024-02-21T06:49:52;22.50;;;14.63;;
11334;SDS011;5722;42.620;23.374;2024-02-21T06:52:20;17.50;;;14.47;;
11334;SDS011;5722;42.620;23.374;2024-02-21T06:54:50;17.80;;;14.40;;
11334;SDS011;5722;42.620;23.374;2024-02-21T06:57:17;19.93;;;13.90;;
11334;SDS011;5722;42.620;23.374;2024-02-21T06:59:44;19.97;;;14.33;;
11334;SDS011;5722;42.620;23.374;2024-02-21T07:02:10;17.33;;;13.50;;
11334;SDS011;5722;42.620;23.374;2024-02-21T07:04:37;19.23;;;13.27;;
11334;SDS011;5722;42.620;23.374;2024-02-21T07:07:04;21.57;;;12.97;;
11334;SDS011;5722;42.620;23.374;2024-02-21T07:09:31;19.80;;;13.87;;
11334;SDS011;5722;42.620;23.374;2024-02-21T07:11:59;18.20;;;13.80;;
11334;SDS011;5722;42.620;23.374;2024-02-21T07:14:27;21.77;;;14.00;;
11334;SDS011;5722;42.620;23.374;2024-02-21T07:16:54;18.30;;;14.10;;
11334;SDS011;5722;42.620;23.374;2024-02-21T07:19:22;17.03;;;13.60;;
11334;SDS011;5722;42.620;23.374;2024-02-21T07:21:49;20.50;;;13.90;;
11334;SDS011;5722;42.620;23.374;2024-02-21T07:24:16;20.73;;;13.73;;
11334;SDS011;5722;42.620;23.374;2024-02-21T07:26:42;18.47;;;13.50;;
11334;SDS011;5722;42.620;23.374;2024-02-21T07:29:11;20.13;;;13.97;;
11334;SDS011;5722;42.620;23.374;2024-02-21T07:31:38;17.63;;;13.20;;
11334;SDS011;5722;42.620;23.374;2024-02-21T07:34:05;18.30;;;13.17;;
11334;SDS011;5722;42.620;23.374;2024-02-21T07:36:32;15.07;;;12.57;;
11334;SDS011;5722;42.620;23.374;2024-02-21T07:38:59;17.23;;;13.80;;
11334;SDS011;5722;42.620;23.374;2024-02-21T07:41:25;16.87;;;13.07;;
11334;SDS011;5722;42.620;23.374;2024-02-21T07:43:53;18.43;;;14.50;;
11334;SDS011;5722;42.620;23.374;2024-02-21T07:46:21;18.20;;;13.87;;
11334;SDS011;5722;42.620;23.374;2024-02-21T07:48:48;16.30;;;13.13;;
11334;SDS011;5722;42.620;23.374;2024-02-21T07:51:16;18.33;;;13.53;;
11334;SDS011;5722;42.620;23.374;2024-02-21T07:53:43;18.53;;;13.57;;
11334;SDS011;5722;42.620;23.374;2024-02-21T07:56:11;16.50;;;12.97;;
11334;SDS011;5722;42.620;23.374;2024-02-21T07:58:38;16.70;;;13.03;;
11334;SDS011;5722;42.620;23.374;2024-02-21T08:01:04;16.83;;;13.00;;
11334;SDS011;5722;42.620;23.374;2024-02-21T08:03:33;17.07;;;13.23;;
11334;SDS011;5722;42.620;23.374;2024-02-21T08:05:59;17.27;;;13.07;;
11334;SDS011;5722;42.620;23.374;2024-02-21T08:08:26;19.10;;;14.23;;
11334;SDS011;5722;42.620;23.374;2024-02-21T08:10:53;17.77;;;14.23;;
11334;SDS011;5722;42.620;23.374;2024-02-21T08:13:20;15.70;;;12.40;;
11334;SDS011;5722;42.620;23.374;2024-02-21T08:15:46;18.33;;;13.37;;
11334;SDS011;5722;42.620;23.374;2024-02-21T08:18:13;18.67;;;13.50;;
11334;SDS011;5722;42.620;23.374;2024-02-21T08:20:41;17.03;;;13.43;;
11334;SDS011;5722;42.620;23.374;2024-02-21T08:23:08;19.63;;;13.73;;
11334;SDS011;5722;42.620;23.374;2024-02-21T08:25:34;17.07;;;13.17;;
11334;SDS011;5722;42.620;23.374;2024-02-21T08:28:01;16.67;;;13.07;;
11334;SDS011;5722;42.620;23.374;2024-02-21T08:30:28;16.43;;;12.90;;
11334;SDS011;5722;42.620;23.374;2024-02-21T08:32:54;18.37;;;13.97;;
11334;SDS011;5722;42.620;23.374;2024-02-21T08:35:21;18.63;;;13.10;;
11334;SDS011;5722;42.620;23.374;2024-02-21T08:37:49;14.87;;;12.20;;
11334;SDS011;5722;42.620;23.374;2024-02-21T08:40:16;14.93;;;12.37;;
11334;SDS011;5722;42.620;23.374;2024-02-21T08:42:46;19.43;;;13.10;;
11334;SDS011;5722;42.620;23.374;2024-02-21T08:45:13;15.43;;;13.03;;
11334;SDS011;5722;42.620;23.374;2024-02-21T08:47:39;16.70;;;13.03;;
11334;SDS011;5722;42.620;23.374;2024-02-21T08:50:06;14.10;;;12.30;;
11334;SDS011;5722;42.620;23.374;2024-02-21T08:52:34;19.63;;;12.67;;
11334;SDS011;5722;42.620;23.374;2024-02-21T08:55:03;16.87;;;12.40;;
11334;SDS011;5722;42.620;23.374;2024-02-21T08:57:29;13.70;;;11.73;;
11334;SDS011;5722;42.620;23.374;2024-02-21T09:00:01;13.63;;;11.10;;
11334;SDS011;5722;42.620;23.374;2024-02-21T09:02:32;16.03;;;11.80;;
11334;SDS011;5722;42.620;23.374;2024-02-21T09:04:58;15.07;;;11.77;;
11334;SDS011;5722;42.620;23.374;2024-02-21T09:07:25;15.30;;;12.33;;
11334;SDS011;5722;42.620;23.374;2024-02-21T09:09:52;15.53;;;11.07;;
11334;SDS011;5722;42.620;23.374;2024-02-21T09:12:20;16.27;;;11.73;;
11334;SDS011;5722;42.620;23.374;2024-02-21T09:14:47;15.23;;;10.67;;
11334;SDS011;5722;42.620;23.374;2024-02-21T09:17:15;10.20;;;9.10;;
11334;SDS011;5722;42.620;23.374;2024-02-21T09:19:42;11.90;;;9.97;;
11334;SDS011;5722;42.620;23.374;2024-02-21T09:22:09;12.63;;;10.73;;
11334;SDS011;5722;42.620;23.374;2024-02-21T09:24:35;12.73;;;9.90;;
11334;SDS011;5722;42.620;23.374;2024-02-21T09:27:02;12.63;;;10.47;;
11334;SDS011;5722;42.620;23.374;2024-02-21T09:29:33;12.03;;;10.20;;
11334;SDS011;5722;42.620;23.374;2024-02-21T09:32:06;12.53;;;9.73;;
11334;SDS011;5722;42.620;23.374;2024-02-21T09:34:33;13.10;;;9.87;;
11334;SDS011;5722;42.620;23.374;2024-02-21T09:37:00;12.33;;;9.53;;
11334;SDS011;5722;42.620;23.374;2024-02-21T09:39:26;11.93;;;9.40;;
11334;SDS011;5722;42.620;23.374;2024-02-21T09:41:54;11.10;;;9.93;;
11334;SDS011;5722;42.620;23.374;2024-02-21T09:44:21;13.97;;;10.67;;
11334;SDS011;5722;42.620;23.374;2024-02-21T09:46:52;15.53;;;11.03;;
11334;SDS011;5722;42.620;23.374;2024-02-21T09:49:23;13.60;;;10.23;;
11334;SDS011;5722;42.620;23.374;2024-02-21T09:51:54;12.17;;;10.20;;
11334;SDS011;5722;42.620;23.374;2024-02-21T09:54:22;15.43;;;11.57;;
11334;SDS011;5722;42.620;23.374;2024-02-21T09:56:49;12.50;;;11.17;;
11334;SDS011;5722;42.620;23.374;2024-02-21T09:59:16;15.07;;;10.90;;
11334;SDS011;5722;42.620;23.374;2024-02-21T10:01:43;15.33;;;11.30;;
11334;SDS011;5722;42.620;23.374;2024-02-21T10:04:18;12.77;;;10.67;;
11334;SDS011;5722;42.620;23.374;2024-02-21T10:06:45;12.40;;;10.73;;
11334;SDS011;5722;42.620;23.374;2024-02-21T10:09:19;14.67;;;10.03;;
11334;SDS011;5722;42.620;23.374;2024-02-21T10:11:47;12.90;;;10.50;;
11334;SDS011;5722;42.620;23.374;2024-02-21T10:14:13;11.87;;;10.33;;
11334;SDS011;5722;42.620;23.374;2024-02-21T10:16:41;17.13;;;10.23;;
11334;SDS011;5722;42.620;23.374;2024-02-21T10:19:15;11.67;;;9.97;;
11334;SDS011;5722;42.620;23.374;2024-02-21T10:21:44;10.37;;;9.23;;
11334;SDS011;5722;42.620;23.374;2024-02-21T10:24:12;10.07;;;8.83;;
11334;SDS011;5722;42.620;23.374;2024-02-21T10:26:39;8.53;;;7.50;;
11334;SDS011;5722;42.620;23.374;2024-02-21T10:29:09;10.87;;;9.03;;
11334;SDS011;5722;42.620;23.374;2024-02-21T10:31:36;10.10;;;8.03;;
11334;SDS011;5722;42.620;23.374;2024-02-21T10:34:05;8.53;;;7.73;;
11334;SDS011;5722;42.620;23.374;2024-02-21T10:36:35;12.37;;;8.37;;
11334;SDS011;5722;42.620;23.374;2024-02-21T10:39:07;9.37;;;7.40;;
11334;SDS011;5722;42.620;23.374;2024-02-21T10:41:34;12.33;;;8.83;;
11334;SDS011;5722;42.620;23.374;2024-02-21T10:44:08;11.50;;;7.93;;
11334;SDS011;5722;42.620;23.374;2024-02-21T10:46:38;9.13;;;8.13;;
11334;SDS011;5722;42.620;23.374;2024-02-21T10:49:14;9.73;;;7.77;;
11334;SDS011;5722;42.620;23.374;2024-02-21T10:51:45;16.83;;;7.50;;
11334;SDS011;5722;42.620;23.374;2024-02-21T10:54:24;9.33;;;7.43;;
11334;SDS011;5722;42.620;23.374;2024-02-21T10:56:58;8.80;;;7.37;;
11334;SDS011;5722;42.620;23.374;2024-02-21T10:59:30;9.30;;;7.70;;
11334;SDS011;5722;42.620;23.374;2024-02-21T11:01:58;8.00;;;7.20;;
11334;SDS011;5722;42.620;23.374;2024-02-21T11:04:27;8.70;;;7.37;;
11334;SDS011;5722;42.620;23.374;2024-02-21T11:06:56;10.90;;;7.17;;
11334;SDS011;5722;42.620;23.374;2024-02-21T11:09:30;7.37;;;6.63;;
11334;SDS011;5722;42.620;23.374;2024-02-21T11:11:58;7.13;;;6.43;;
11334;SDS011;5722;42.620;23.374;2024-02-21T11:14:30;8.13;;;6.80;;
11334;SDS011;5722;42.620;23.374;2024-02-21T11:17:13;5.87;;;5.27;;
11334;SDS011;5722;42.620;23.374;2024-02-21T11:19:50;6.53;;;5.27;;
11334;SDS011;5722;42.620;23.374;2024-02-21T11:22:17;5.97;;;5.17;;
11334;SDS011;5722;42.620;23.374;2024-02-21T11:24:49;5.33;;;4.83;;
11334;SDS011;5722;42.620;23.374;2024-02-21T11:27:21;5.67;;;5.17;;
11334;SDS011;5722;42.620;23.374;2024-02-21T11:29:53;7.17;;;5.83;;
11334;SDS011;5722;42.620;23.374;2024-02-21T11:32:25;6.83;;;5.20;;
11334;SDS011;5722;42.620;23.374;2024-02-21T11:34:56;5.93;;;5.33;;
11334;SDS011;5722;42.620;23.374;2024-02-21T11:37:38;6.27;;;5.57;;
11334;SDS011;5722;42.620;23.374;2024-02-21T11:40:10;5.17;;;4.67;;
11334;SDS011;5722;42.620;23.374;2024-02-21T11:42:41;5.30;;;4.80;;
11334;SDS011;5722;42.620;23.374;2024-02-21T11:45:14;5.67;;;4.80;;
11334;SDS011;5722;42.620;23.374;2024-02-21T11:48:02;6.83;;;4.80;;
11334;SDS011;5722;42.620;23.374;2024-02-21T11:50:31;5.67;;;4.57;;
11334;SDS011;5722;42.620;23.374;2024-02-21T11:52:58;10.10;;;5.00;;
11334;SDS011;5722;42.620;23.374;2024-02-21T11:55:27;5.93;;;5.33;;
11334;SDS011;5722;42.620;23.374;2024-02-21T11:57:56;6.20;;;4.47;;
11334;SDS011;5722;42.620;23.374;2024-02-21T12:00:25;6.23;;;5.00;;
11334;SDS011;5722;42.620;23.374;2024-02-21T12:05:59;6.30;;;4.50;;
11334;SDS011;5722;42.620;23.374;2024-02-21T12:08:40;4.97;;;4.47;;
11334;SDS011;5722;42.620;23.374;2024-02-21T12:11:19;8.40;;;4.77;;
11334;SDS011;5722;42.620;23.374;2024-02-21T12:13:46;4.97;;;4.30;;
11334;SDS011;5722;42.620;23.374;2024-02-21T12:16:16;5.63;;;4.90;;
11334;SDS011;5722;42.620;23.374;2024-02-21T12:18:46;6.27;;;4.57;;
11334;SDS011;5722;42.620;23.374;2024-02-21T12:21:19;5.40;;;4.80;;
11334;SDS011;5722;42.620;23.374;2024-02-21T12:23:50;6.63;;;4.30;;
11334;SDS011;5722;42.620;23.374;2024-02-21T12:26:21;5.20;;;4.10;;
11334;SDS011;5722;42.620;23.374;2024-02-21T12:28:49;6.97;;;4.60;;
11334;SDS011;5722;42.620;23.374;2024-02-21T12:31:24;4.90;;;4.40;;
11334;SDS011;5722;42.620;23.374;2024-02-21T12:33:53;5.67;;;4.70;;
11334;SDS011;5722;42.620;23.374;2024-02-21T12:36:20;6.07;;;4.67;;
11334;SDS011;5722;42.620;23.374;2024-02-21T12:38:47;6.57;;;4.90;;
11334;SDS011;5722;42.620;23.374;2024-02-21T12:41:15;5.97;;;5.37;;
11334;SDS011;5722;42.620;23.374;2024-02-21T12:43:44;6.83;;;5.50;;
11334;SDS011;5722;42.620;23.374;2024-02-21T12:46:15;6.57;;;5.80;;
11334;SDS011;5722;42.620;23.374;2024-02-21T12:48:55;6.37;;;5.13;;
11334;SDS011;5722;42.620;23.374;2024-02-21T12:51:22;5.70;;;4.80;;
11334;SDS011;5722;42.620;23.374;2024-02-21T12:53:49;6.87;;;4.97;;
11334;SDS011;5722;42.620;23.374;2024-02-21T12:56:25;6.60;;;5.00;;
11334;SDS011;5722;42.620;23.374;2024-02-21T12:58:54;5.83;;;4.60;;
11334;SDS011;5722;42.620;23.374;2024-02-21T13:01:21;5.97;;;4.60;;
11334;SDS011;5722;42.620;23.374;2024-02-21T13:03:54;7.00;;;4.83;;
11334;SDS011;5722;42.620;23.374;2024-02-21T13:09:14;6.03;;;5.10;;
11334;SDS011;5722;42.620;23.374;2024-02-21T13:11:41;7.80;;;5.20;;
11334;SDS011;5722;42.620;23.374;2024-02-21T13:17:05;7.57;;;5.10;;
11334;SDS011;5722;42.620;23.374;2024-02-21T13:22:28;6.47;;;4.90;;
11334;SDS011;5722;42.620;23.374;2024-02-21T13:24:55;4.37;;;3.70;;
11334;SDS011;5722;42.620;23.374;2024-02-21T13:27:23;5.57;;;4.13;;
11334;SDS011;5722;42.620;23.374;2024-02-21T13:29:50;7.50;;;5.00;;
11334;SDS011;5722;42.620;23.374;2024-02-21T13:32:18;7.57;;;5.30;;
11334;SDS011;5722;42.620;23.374;2024-02-21T13:34:45;8.83;;;6.30;;
11334;SDS011;5722;42.620;23.374;2024-02-21T13:37:13;9.60;;;6.63;;
11334;SDS011;5722;42.620;23.374;2024-02-21T13:39:40;8.63;;;6.37;;
11334;SDS011;5722;42.620;23.374;2024-02-21T13:42:07;7.87;;;6.23;;
11334;SDS011;5722;42.620;23.374;2024-02-21T13:44:38;7.80;;;7.00;;
11334;SDS011;5722;42.620;23.374;2024-02-21T13:47:12;7.77;;;6.53;;
11334;SDS011;5722;42.620;23.374;2024-02-21T13:49:42;8.13;;;6.90;;
11334;SDS011;5722;42.620;23.374;2024-02-21T13:52:09;8.10;;;6.70;;
11334;SDS011;5722;42.620;23.374;2024-02-21T13:54:36;8.63;;;6.50;;
11334;SDS011;5722;42.620;23.374;2024-02-21T13:57:03;8.03;;;5.77;;
11334;SDS011;5722;42.620;23.374;2024-02-21T13:59:29;9.20;;;5.97;;
11334;SDS011;5722;42.620;23.374;2024-02-21T14:02:01;8.47;;;5.50;;
11334;SDS011;5722;42.620;23.374;2024-02-21T14:04:29;9.30;;;6.70;;
11334;SDS011;5722;42.620;23.374;2024-02-21T14:06:57;7.77;;;6.07;;
11334;SDS011;5722;42.620;23.374;2024-02-21T14:09:24;9.97;;;6.23;;
11334;SDS011;5722;42.620;23.374;2024-02-21T14:11:51;11.53;;;5.80;;
11334;SDS011;5722;42.620;23.374;2024-02-21T14:14:18;5.70;;;5.10;;
11334;SDS011;5722;42.620;23.374;2024-02-21T14:16:45;8.23;;;5.97;;
11334;SDS011;5722;42.620;23.374;2024-02-21T14:19:13;7.20;;;6.50;;
11334;SDS011;5722;42.620;23.374;2024-02-21T14:21:39;7.40;;;6.50;;
11334;SDS011;5722;42.620;23.374;2024-02-21T14:24:09;7.37;;;6.67;;
11334;SDS011;5722;42.620;23.374;2024-02-21T14:26:35;9.20;;;7.43;;
11334;SDS011;5722;42.620;23.374;2024-02-21T14:29:07;9.40;;;7.33;;
11334;SDS011;5722;42.620;23.374;2024-02-21T14:31:35;9.10;;;8.17;;
11334;SDS011;5722;42.620;23.374;2024-02-21T14:34:01;10.23;;;7.37;;
11334;SDS011;5722;42.620;23.374;2024-02-21T14:36:28;8.97;;;7.83;;
11334;SDS011;5722;42.620;23.374;2024-02-21T14:38:55;8.03;;;7.20;;
11334;SDS011;5722;42.620;23.374;2024-02-21T14:41:24;7.53;;;6.07;;
11334;SDS011;5722;42.620;23.374;2024-02-21T14:43:55;7.53;;;6.23;;
11334;SDS011;5722;42.620;23.374;2024-02-21T14:46:27;8.57;;;6.40;;
11334;SDS011;5722;42.620;23.374;2024-02-21T14:48:54;7.60;;;6.50;;
11334;SDS011;5722;42.620;23.374;2024-02-21T14:51:22;8.37;;;6.63;;
11334;SDS011;5722;42.620;23.374;2024-02-21T14:53:49;8.60;;;6.30;;
11334;SDS011;5722;42.620;23.374;2024-02-21T14:56:16;8.93;;;6.50;;
11334;SDS011;5722;42.620;23.374;2024-02-21T14:58:46;10.03;;;6.23;;
11334;SDS011;5722;42.620;23.374;2024-02-21T15:01:13;10.43;;;7.00;;
11334;SDS011;5722;42.620;23.374;2024-02-21T15:03:40;8.30;;;7.07;;
11334;SDS011;5722;42.620;23.374;2024-02-21T15:06:08;8.73;;;6.70;;
11334;SDS011;5722;42.620;23.374;2024-02-21T15:08:34;8.43;;;6.67;;
11334;SDS011;5722;42.620;23.374;2024-02-21T15:11:04;9.80;;;7.27;;
11334;SDS011;5722;42.620;23.374;2024-02-21T15:13:33;8.63;;;7.07;;
11334;SDS011;5722;42.620;23.374;2024-02-21T15:16:04;6.90;;;6.20;;
11334;SDS011;5722;42.620;23.374;2024-02-21T15:18:31;6.47;;;5.80;;
11334;SDS011;5722;42.620;23.374;2024-02-21T15:20:59;8.67;;;7.73;;
11334;SDS011;5722;42.620;23.374;2024-02-21T15:23:30;9.93;;;8.17;;
11334;SDS011;5722;42.620;23.374;2024-02-21T15:25:59;10.87;;;8.13;;
11334;SDS011;5722;42.620;23.374;2024-02-21T15:28:26;9.43;;;8.17;;
11334;SDS011;5722;42.620;23.374;2024-02-21T15:30:54;9.03;;;7.80;;
11334;SDS011;5722;42.620;23.374;2024-02-21T15:33:29;7.50;;;6.23;;
11334;SDS011;5722;42.620;23.374;2024-02-21T15:35:56;8.30;;;6.73;;
11334;SDS011;5722;42.620;23.374;2024-02-21T15:38:23;11.27;;;8.20;;
11334;SDS011;5722;42.620;23.374;2024-02-21T15:40:54;11.33;;;7.70;;
11334;SDS011;5722;42.620;23.374;2024-02-21T15:43:21;10.50;;;8.10;;
11334;SDS011;5722;42.620;23.374;2024-02-21T15:45:49;10.20;;;8.97;;
11334;SDS011;5722;42.620;23.374;2024-02-21T15:48:29;10.73;;;9.53;;
11334;SDS011;5722;42.620;23.374;2024-02-21T15:51:00;10.27;;;9.17;;
11334;SDS011;5722;42.620;23.374;2024-02-21T15:53:28;11.10;;;8.20;;
11334;SDS011;5722;42.620;23.374;2024-02-21T15:55:55;8.37;;;6.90;;
11334;SDS011;5722;42.620;23.374;2024-02-21T15:58:24;8.10;;;6.83;;
11334;SDS011;5722;42.620;23.374;2024-02-21T16:00:51;7.63;;;6.40;;
11334;SDS011;5722;42.620;23.374;2024-02-21T16:03:19;9.17;;;7.33;;
11334;SDS011;5722;42.620;23.374;2024-02-21T16:05:49;13.07;;;9.73;;
11334;SDS011;5722;42.620;23.374;2024-02-21T16:08:16;12.90;;;10.50;;
11334;SDS011;5722;42.620;23.374;2024-02-21T16:10:43;12.83;;;10.63;;
11334;SDS011;5722;42.620;23.374;2024-02-21T16:13:10;13.70;;;11.93;;
11334;SDS011;5722;42.620;23.374;2024-02-21T16:15:39;13.67;;;11.70;;
11334;SDS011;5722;42.620;23.374;2024-02-21T16:18:07;14.73;;;11.77;;
11334;SDS011;5722;42.620;23.374;2024-02-21T16:20:35;17.40;;;12.50;;
11334;SDS011;5722;42.620;23.374;2024-02-21T16:23:03;14.50;;;10.87;;
11334;SDS011;5722;42.620;23.374;2024-02-21T16:25:34;18.60;;;11.67;;
11334;SDS011;5722;42.620;23.374;2024-02-21T16:28:01;16.80;;;11.97;;
11334;SDS011;5722;42.620;23.374;2024-02-21T16:30:30;16.90;;;11.53;;
11334;SDS011;5722;42.620;23.374;2024-02-21T16:32:59;14.90;;;11.70;;
11334;SDS011;5722;42.620;23.374;2024-02-21T16:35:26;15.27;;;12.43;;
11334;SDS011;5722;42.620;23.374;2024-02-21T16:37:53;15.80;;;11.93;;